MMCS/CJS METAR and TAF weather

Enter ICAO airport designator
Station Type Date Time Source
MMCS METAR 2019/10/15 20:40 UTC NOAA

MMCS 152040Z 00000KT 10SM FEW050 SCT200 26/11 A3007 RMK SLP083 57022 914 8/102


Station Type Date Time Source
MMCS Decoded METAR 2019/10/15 20:40 UTC NOAA

Ciudad Juarez International , Mexico (MMCS) 31-38N 106-26W
Oct 15, 2019 - 04:40 PM EDT / 2019.10.15 2040 UTC
Wind: Calm:0
Visibility: 10 mile(s):0
Sky conditions: partly cloudy
Temperature: 78 F (26 C)
Dew Point: 51 F (11 C)
Relative Humidity: 39%
Pressure (altimeter): 30.07 in. Hg (1018 hPa)
Pressure tendency: 0.06 inches (2.2 hPa) lower than three hours ago
ob: MMCS 152040Z 00000KT 10SM FEW050 SCT200 26/11 A3007 RMK SLP083 57022 914 8/102
cycle: 20

Station Type Date Time Source
MMCS TAF 2019/10/15 18:40 UTC NOAA

TAF MMCS 151733Z 1518/1618 28010KT P6SM SCT030 BKN100
FM160000 04012KT P6SM SCT080 BKN250
FM160600 04020KT P6SM SCT080
FM161500 09015KT P6SM SKC

Example: see airport list